Time;durP1;ratioP1;P1;durP2;ratioP2;P2;SDS_P1;SDS_P2;PMS_P1;PMS_P2;Temp;Humidity;BMP_temperature;BMP_pressure;BME280_temperature;BME280_humidity;BME280_pressure;Samples;Min_cycle;Max_cycle;Signal;HPM_P1;HPM_P2
2021/07/18 00:01:53;;;;;;;20.15;12.40;;;;;;;21.25;80.71;99120.12;1676895;84;20989;-69
2021/07/18 00:04:20;;;;;;;15.23;12.25;;;;;;;21.27;80.50;99119.74;1699411;82;21047;-69
2021/07/18 00:06:46;;;;;;;17.65;12.55;;;;;;;21.25;80.30;99114.58;1692710;85;21531;-69
2021/07/18 00:09:14;;;;;;;18.42;12.88;;;;;;;21.26;80.20;99107.05;1700369;83;21092;-69
2021/07/18 00:11:42;;;;;;;16.77;12.88;;;;;;;21.24;80.02;99104.66;1676813;83;21415;-69
2021/07/18 00:14:09;;;;;;;19.30;13.25;;;;;;;21.21;79.94;99099.84;1686804;83;21533;-68
2021/07/18 00:16:36;;;;;;;18.80;13.20;;;;;;;21.19;79.92;99100.77;1702311;83;21073;-69
2021/07/18 00:19:04;;;;;;;17.77;12.73;;;;;;;21.17;79.85;99096.18;1689801;83;21044;-69
2021/07/18 00:21:31;;;;;;;15.85;12.60;;;;;;;21.19;79.86;99096.61;1691613;83;21048;-68
2021/07/18 00:23:57;;;;;;;17.52;13.15;;;;;;;21.19;79.78;99099.95;1696603;83;21098;-68
2021/07/18 00:26:24;;;;;;;18.60;13.32;;;;;;;21.15;79.79;99094.33;1708252;83;21056;-68
2021/07/18 00:28:50;;;;;;;23.12;14.13;;;;;;;21.15;79.88;99094.33;1721302;82;21623;-68
2021/07/18 00:31:17;;;;;;;18.67;13.53;;;;;;;21.17;79.86;99100.33;1705378;83;21019;-68
2021/07/18 00:33:43;;;;;;;19.57;13.28;;;;;;;21.19;79.80;99099.38;1698452;82;21016;-68
2021/07/18 00:36:11;;;;;;;19.60;13.25;;;;;;;21.20;79.74;99109.87;1659842;83;21523;-68
2021/07/18 00:38:39;;;;;;;19.15;13.98;;;;;;;21.20;79.71;99105.73;1694143;82;21535;-68
2021/07/18 00:41:05;;;;;;;18.50;13.98;;;;;;;21.17;79.78;99100.33;1699649;83;21043;-68
2021/07/18 00:43:33;;;;;;;18.82;13.08;;;;;;;21.19;79.83;99103.53;1707729;83;21523;-68
2021/07/18 00:46:00;;;;;;;16.05;12.80;;;;;;;21.21;79.85;99102.61;1721650;83;21168;-68
2021/07/18 00:48:28;;;;;;;17.77;12.65;;;;;;;21.21;79.79;99101.80;1725637;81;21030;-68
2021/07/18 00:50:55;;;;;;;15.30;12.82;;;;;;;21.18;79.76;99097.80;1723332;83;21046;-68
2021/07/18 00:53:22;;;;;;;21.75;14.05;;;;;;;21.12;79.67;99102.55;1728945;81;20999;-68
2021/07/18 00:55:50;;;;;;;17.12;12.60;;;;;;;21.09;79.73;99094.93;1728877;83;21006;-68
2021/07/18 00:58:17;;;;;;;16.17;12.90;;;;;;;21.04;79.74;99100.75;1726790;83;21514;-68
2021/07/18 01:00:43;;;;;;;21.10;13.45;;;;;;;21.00;79.81;99099.27;1726378;83;21107;-68
2021/07/18 01:03:09;;;;;;;15.00;13.18;;;;;;;20.97;79.88;99101.37;1728305;83;21521;-68
2021/07/18 01:05:36;;;;;;;17.77;12.95;;;;;;;20.97;79.94;99102.75;1727221;83;21428;-68
2021/07/18 01:08:05;;;;;;;20.05;14.23;;;;;;;20.97;79.98;99099.98;1722310;83;21031;-69
2021/07/18 01:10:31;;;;;;;16.82;13.08;;;;;;;20.96;79.96;99092.03;1662974;84;21026;-69
2021/07/18 01:12:58;;;;;;;18.27;13.53;;;;;;;20.94;80.02;99088.22;1686762;81;21048;-69
2021/07/18 01:15:25;;;;;;;19.00;14.38;;;;;;;20.91;80.14;99093.09;1727788;83;21015;-69
2021/07/18 01:17:51;;;;;;;22.35;14.50;;;;;;;20.90;80.32;99091.50;1727065;81;20984;-69
2021/07/18 01:20:17;;;;;;;18.80;12.82;;;;;;;20.89;80.49;99084.35;1725706;83;21655;-69
2021/07/18 01:22:44;;;;;;;21.05;13.72;;;;;;;20.90;80.69;99089.31;1728184;83;21023;-69
2021/07/18 01:25:11;;;;;;;21.57;14.43;;;;;;;20.90;80.78;99088.73;1678601;83;21637;-69
2021/07/18 01:27:39;;;;;;;18.65;13.20;;;;;;;20.90;80.90;99083.20;1728711;83;20969;-69
2021/07/18 01:30:08;;;;;;;23.55;13.40;;;;;;;20.90;80.99;99082.39;1722254;82;21501;-68
2021/07/18 01:32:35;;;;;;;24.02;14.45;;;;;;;20.89;81.12;99078.02;1733122;82;21694;-69
2021/07/18 01:35:05;;;;;;;19.27;13.22;;;;;;;20.88;81.10;99076.39;1728981;82;21150;-69
2021/07/18 01:37:32;;;;;;;21.20;13.50;;;;;;;20.88;81.06;99079.97;1728054;83;21023;-69
2021/07/18 01:40:01;;;;;;;20.95;13.30;;;;;;;20.85;81.03;99075.16;1728472;82;21532;-68
2021/07/18 01:42:27;;;;;;;22.87;13.70;;;;;;;20.86;80.99;99087.83;1729303;83;20993;-68
2021/07/18 01:44:55;;;;;;;21.45;13.72;;;;;;;20.81;80.96;99082.55;1725247;83;21729;-68
2021/07/18 01:47:22;;;;;;;22.95;13.70;;;;;;;20.79;80.92;99085.69;1716672;83;21011;-69
2021/07/18 01:49:48;;;;;;;24.90;13.75;;;;;;;20.76;80.94;99074.53;1720808;82;21945;-69
2021/07/18 01:52:17;;;;;;;23.47;13.62;;;;;;;20.72;80.94;99080.54;1721796;83;21013;-69
2021/07/18 01:54:44;;;;;;;19.57;13.28;;;;;;;20.73;80.99;99077.98;1721570;82;21003;-69
2021/07/18 01:57:14;;;;;;;21.40;13.95;;;;;;;20.73;80.92;99083.52;1720875;83;21415;-69
2021/07/18 01:59:41;;;;;;;19.07;13.83;;;;;;;20.72;80.91;99077.20;1721313;83;21034;-69
2021/07/18 02:02:07;;;;;;;20.27;13.45;;;;;;;20.71;80.86;99081.69;1720850;83;20996;-69
2021/07/18 02:04:34;;;;;;;24.43;13.70;;;;;;;20.71;80.86;99084.45;1716960;83;21101;-69
2021/07/18 02:07:03;;;;;;;24.18;13.55;;;;;;;20.73;80.87;99075.22;1721095;83;20995;-69
2021/07/18 02:09:33;;;;;;;19.32;14.00;;;;;;;20.76;80.80;99082.22;1690067;83;21661;-69
2021/07/18 02:12:01;;;;;;;20.62;13.95;;;;;;;20.78;80.85;99084.64;1695642;83;21477;-69
2021/07/18 02:14:28;;;;;;;19.00;13.70;;;;;;;20.81;80.80;99072.87;1720705;83;21035;-69
2021/07/18 02:16:54;;;;;;;21.20;12.80;;;;;;;20.83;80.55;99072.73;1719379;83;21038;-69
2021/07/18 02:19:21;;;;;;;17.98;13.65;;;;;;;20.79;80.48;99069.09;1721213;83;21600;-69
2021/07/18 02:21:47;;;;;;;21.55;14.13;;;;;;;20.76;80.42;99075.30;1714286;83;21107;-69
2021/07/18 02:24:13;;;;;;;21.40;13.25;;;;;;;20.69;80.47;99068.20;1708779;83;21042;-69
2021/07/18 02:26:40;;;;;;;22.82;14.25;;;;;;;20.65;80.64;99068.69;1721660;83;21038;-68
2021/07/18 02:29:06;;;;;;;24.55;14.07;;;;;;;20.63;80.71;99072.39;1718867;83;21023;-68
2021/07/18 02:31:35;;;;;;;21.80;13.13;;;;;;;20.60;80.75;99071.73;1715549;83;21034;-69
2021/07/18 02:34:01;;;;;;;25.70;14.47;;;;;;;20.55;80.86;99078.87;1714388;83;21055;-68
2021/07/18 02:36:27;;;;;;;22.17;13.83;;;;;;;20.53;81.01;99067.95;1677804;85;21508;-69
2021/07/18 02:38:54;;;;;;;21.82;13.43;;;;;;;20.52;81.04;99066.34;1721040;82;21161;-68
2021/07/18 02:41:21;;;;;;;22.48;13.62;;;;;;;20.48;81.14;99066.24;1721524;83;21468;-69
2021/07/18 02:43:48;;;;;;;22.60;12.53;;;;;;;20.49;81.20;99056.80;1721167;82;21482;-68
2021/07/18 02:46:14;;;;;;;22.10;11.55;;;;;;;20.54;81.17;99062.66;1712140;83;21051;-68
2021/07/18 02:48:41;;;;;;;23.47;14.07;;;;;;;20.56;81.08;99063.09;1716809;83;21035;-68
2021/07/18 02:51:07;;;;;;;20.77;11.53;;;;;;;20.57;81.10;99057.80;1717984;83;21006;-68
2021/07/18 02:53:34;;;;;;;21.57;12.13;;;;;;;20.60;81.09;99055.13;1716761;82;21020;-69
2021/07/18 02:56:00;;;;;;;20.57;12.40;;;;;;;20.65;81.06;99056.84;1721280;83;21004;-69
2021/07/18 02:58:27;;;;;;;26.02;12.00;;;;;;;20.71;80.96;99059.56;1721748;83;21102;-69
2021/07/18 03:00:53;;;;;;;23.07;12.73;;;;;;;20.76;80.88;99053.18;1692782;83;21011;-69
2021/07/18 03:03:20;;;;;;;20.68;12.30;;;;;;;20.83;80.78;99055.36;1721591;82;21090;-69
2021/07/18 03:05:47;;;;;;;22.80;12.23;;;;;;;20.84;80.75;99064.66;1721505;83;20975;-69
2021/07/18 03:08:13;;;;;;;22.62;12.10;;;;;;;20.88;80.72;99059.22;1715605;82;21695;-69
2021/07/18 03:10:40;;;;;;;19.25;12.18;;;;;;;20.91;80.74;99058.50;1721177;83;20995;-69
2021/07/18 03:13:08;;;;;;;20.17;12.33;;;;;;;20.99;80.81;99056.16;1719598;82;21035;-69
2021/07/18 03:15:34;;;;;;;21.95;12.05;;;;;;;21.11;80.88;99055.30;1684490;85;20995;-69
2021/07/18 03:18:02;;;;;;;19.75;11.53;;;;;;;21.24;80.74;99057.61;1716972;82;21518;-69
2021/07/18 03:20:29;;;;;;;17.82;12.13;;;;;;;21.32;80.41;99055.81;1718653;83;20991;-69
2021/07/18 03:22:55;;;;;;;22.65;11.70;;;;;;;21.41;80.25;99049.50;1656822;86;21024;-69
2021/07/18 03:25:22;;;;;;;20.77;12.50;;;;;;;21.54;80.26;99057.13;1720264;83;21438;-69
2021/07/18 03:27:48;;;;;;;24.67;11.57;;;;;;;21.70;80.18;99057.88;1715925;82;20983;-69
2021/07/18 03:30:17;;;;;;;21.82;11.38;;;;;;;21.89;79.90;99062.66;1707171;83;20944;-69
2021/07/18 03:32:43;;;;;;;24.50;11.90;;;;;;;22.15;79.40;99059.48;1720748;83;21002;-69
2021/07/18 03:35:11;;;;;;;20.62;10.75;;;;;;;22.36;78.72;99064.66;1706457;83;21011;-69
2021/07/18 03:37:38;;;;;;;21.05;11.05;;;;;;;22.52;78.14;99055.67;1704429;83;21039;-69
2021/07/18 03:40:08;;;;;;;19.92;11.55;;;;;;;22.68;77.65;99059.75;1719989;83;21418;-69
2021/07/18 03:42:36;;;;;;;23.70;11.33;;;;;;;22.89;77.15;99065.69;1714647;83;20983;-70
2021/07/18 03:45:06;;;;;;;17.12;11.05;;;;;;;23.16;76.67;99065.98;1719737;83;21052;-69
2021/07/18 03:47:32;;;;;;;18.80;10.43;;;;;;;23.39;75.83;99060.97;1694621;85;21070;-69
2021/07/18 03:49:58;;;;;;;20.72;11.15;;;;;;;23.52;75.10;99063.80;1714365;83;21016;-69
2021/07/18 03:52:25;;;;;;;20.92;11.43;;;;;;;23.69;74.99;99063.27;1720413;83;20975;-69
2021/07/18 03:54:51;;;;;;;23.12;10.60;;;;;;;23.95;73.86;99058.28;1723558;83;21046;-69
2021/07/18 03:57:18;;;;;;;17.87;9.58;;;;;;;24.18;72.44;99057.61;1723594;83;21018;-69
2021/07/18 03:59:44;;;;;;;18.87;10.60;;;;;;;24.32;71.99;99062.53;1714503;83;21022;-69
2021/07/18 04:02:11;;;;;;;22.37;10.35;;;;;;;24.46;71.32;99057.94;1725750;83;21034;-69
2021/07/18 04:04:37;;;;;;;18.02;10.32;;;;;;;24.59;71.16;99054.29;1723833;82;21050;-69
2021/07/18 04:07:06;;;;;;;20.97;10.60;;;;;;;24.74;70.58;99058.83;1722746;83;20968;-69
2021/07/18 04:09:32;;;;;;;17.50;9.08;;;;;;;24.86;70.57;99057.80;1720267;82;21530;-69
2021/07/18 04:11:59;;;;;;;18.98;9.33;;;;;;;25.05;69.97;99065.91;1722591;83;21003;-70
2021/07/18 04:14:26;;;;;;;22.10;9.98;;;;;;;25.19;69.16;99074.39;1723577;82;21004;-69
2021/07/18 04:16:52;;;;;;;18.70;10.08;;;;;;;25.31;68.47;99081.08;1724723;83;21511;-69
2021/07/18 04:19:18;;;;;;;22.80;10.55;;;;;;;25.43;68.22;99075.80;1721579;82;21044;-69
2021/07/18 04:21:46;;;;;;;19.15;9.38;;;;;;;25.38;68.34;99080.33;1723555;83;21054;-69
2021/07/18 04:24:12;;;;;;;18.85;9.70;;;;;;;25.48;68.48;99074.84;1720308;83;21015;-70
2021/07/18 04:26:39;;;;;;;15.68;9.48;;;;;;;25.63;67.96;99077.98;1718096;83;21522;-70
2021/07/18 04:29:06;;;;;;;18.67;9.50;;;;;;;25.90;66.87;99080.55;1717058;83;21031;-70
2021/07/18 04:31:33;;;;;;;19.90;10.08;;;;;;;25.94;65.80;99079.95;1719697;83;21005;-69
2021/07/18 04:33:59;;;;;;;20.90;10.05;;;;;;;25.96;65.63;99085.36;1723920;82;21044;-69
2021/07/18 04:36:25;;;;;;;25.75;10.72;;;;;;;26.11;65.84;99075.08;1723960;83;21623;-70
2021/07/18 04:38:52;;;;;;;22.98;10.65;;;;;;;26.35;64.07;99076.41;1723728;82;21082;-70
2021/07/18 04:41:18;;;;;;;21.70;10.60;;;;;;;26.39;64.21;99080.02;1695456;83;20987;-70
2021/07/18 04:43:45;;;;;;;18.30;9.33;;;;;;;26.36;64.20;99075.22;1723926;82;21494;-70
2021/07/18 04:46:12;;;;;;;21.37;10.45;;;;;;;26.47;64.89;99074.64;1718318;83;21033;-70
2021/07/18 04:48:38;;;;;;;17.48;10.63;;;;;;;26.59;63.92;99077.09;1694810;85;21066;-70
2021/07/18 04:51:05;;;;;;;19.25;10.35;;;;;;;26.67;63.42;99076.72;1700490;83;21039;-70
2021/07/18 04:53:31;;;;;;;25.25;10.10;;;;;;;26.77;63.39;99077.13;1693167;84;21023;-70
2021/07/18 04:55:58;;;;;;;24.80;10.13;;;;;;;26.81;63.34;99080.73;1688117;85;21455;-70
2021/07/18 04:58:24;;;;;;;25.10;10.55;;;;;;;27.01;63.70;99080.00;1693558;85;21621;-70
2021/07/18 05:00:51;;;;;;;19.92;10.82;;;;;;;27.20;62.62;99076.03;1695341;83;21035;-69
2021/07/18 05:03:17;;;;;;;19.92;10.63;;;;;;;27.24;61.41;99076.84;1694980;85;21430;-70
2021/07/18 05:05:44;;;;;;;20.20;10.13;;;;;;;27.24;60.92;99075.44;1695117;84;21019;-70
2021/07/18 05:08:11;;;;;;;22.37;12.05;;;;;;;27.20;60.50;99074.64;1694393;85;21107;-70
2021/07/18 05:10:37;;;;;;;16.37;10.75;;;;;;;27.16;61.03;99069.64;1693876;85;21478;-70
2021/07/18 05:13:03;;;;;;;20.30;10.93;;;;;;;27.19;61.37;99066.05;1693519;85;21484;-70
2021/07/18 05:15:32;;;;;;;26.00;11.70;;;;;;;27.19;61.69;99062.66;1695098;83;21051;-70
2021/07/18 05:18:10;;;;;;;22.02;12.00;;;;;;;27.28;61.05;99072.02;1716820;83;21039;-70
2021/07/18 05:20:38;;;;;;;22.95;11.43;;;;;;;27.40;60.81;99071.63;1703878;83;21510;-71
2021/07/18 05:23:04;;;;;;;26.12;12.18;;;;;;;27.58;60.90;99070.25;1718530;83;21071;-70
2021/07/18 05:25:31;;;;;;;22.98;12.63;;;;;;;27.84;60.05;99064.23;1716772;83;21522;-70
2021/07/18 05:27:58;;;;;;;24.10;12.23;;;;;;;28.09;59.12;99057.97;1696031;83;21015;-71
2021/07/18 05:30:24;;;;;;;20.05;12.20;;;;;;;28.33;58.89;99068.09;1693023;85;21000;-70
2021/07/18 05:32:51;;;;;;;22.30;11.97;;;;;;;28.59;58.43;99066.17;1716781;83;21156;-70
2021/07/18 05:35:18;;;;;;;19.82;12.55;;;;;;;28.77;57.81;99066.88;1715128;83;21027;-70
2021/07/18 05:37:45;;;;;;;21.00;12.10;;;;;;;29.03;57.07;99069.72;1693402;83;21023;-70
2021/07/18 05:40:12;;;;;;;23.62;12.88;;;;;;;29.13;56.73;99076.64;1695530;83;20968;-70
2021/07/18 05:42:39;;;;;;;21.55;13.55;;;;;;;29.24;56.17;99076.56;1661572;86;21046;-70
2021/07/18 05:45:10;;;;;;;21.27;13.28;;;;;;;29.33;55.48;99073.33;1679830;83;21012;-71
2021/07/18 05:47:37;;;;;;;21.17;12.63;;;;;;;29.36;55.11;99078.11;1711169;83;21006;-70
2021/07/18 05:50:08;;;;;;;20.08;12.85;;;;;;;29.41;55.48;99079.05;1715723;83;20963;-71
2021/07/18 05:52:35;;;;;;;19.35;12.75;;;;;;;29.55;55.10;99080.33;1716302;83;20963;-70
2021/07/18 05:55:02;;;;;;;21.93;12.73;;;;;;;29.65;54.43;99083.66;1672970;83;21091;-71
2021/07/18 05:57:29;;;;;;;19.87;12.78;;;;;;;29.69;54.60;99078.02;1716258;83;21472;-71
2021/07/18 05:59:55;;;;;;;18.70;12.35;;;;;;;29.88;54.46;99081.05;1701256;83;21066;-70
2021/07/18 06:02:21;;;;;;;20.17;12.00;;;;;;;30.06;53.69;99085.06;1716211;83;20983;-71
2021/07/18 06:04:48;;;;;;;19.77;13.15;;;;;;;30.23;53.44;99086.86;1712395;82;21116;-71
2021/07/18 06:07:14;;;;;;;20.32;13.05;;;;;;;30.26;53.65;99090.84;1697008;83;21011;-71
2021/07/18 06:09:41;;;;;;;20.85;12.25;;;;;;;30.24;54.63;99093.28;1714559;83;21049;-71
2021/07/18 06:12:08;;;;;;;18.27;12.43;;;;;;;30.32;55.59;99090.59;1709090;83;21502;-71
2021/07/18 06:14:36;;;;;;;21.20;12.50;;;;;;;30.62;54.65;99100.45;1714046;82;21546;-71
2021/07/18 06:17:04;;;;;;;19.45;13.03;;;;;;;30.75;53.28;99095.08;1673710;84;21027;-70
2021/07/18 06:19:30;;;;;;;19.52;12.55;;;;;;;30.77;53.31;99097.64;1703766;83;21538;-71
2021/07/18 06:21:57;;;;;;;16.30;11.97;;;;;;;30.90;52.11;99098.65;1714134;83;20997;-70
2021/07/18 06:24:23;;;;;;;17.40;11.95;;;;;;;30.81;51.98;99103.22;1701386;83;21110;-70
2021/07/18 06:26:50;;;;;;;20.25;12.78;;;;;;;30.71;52.75;99099.95;1703703;83;21029;-71
2021/07/18 06:29:16;;;;;;;22.55;12.23;;;;;;;30.99;53.06;99101.78;1716303;82;21530;-70
2021/07/18 06:31:43;;;;;;;18.60;12.82;;;;;;;31.41;53.97;99110.16;1679658;85;21055;-70
2021/07/18 06:34:09;;;;;;;17.40;11.03;;;;;;;31.62;51.81;99108.23;1711619;82;21051;-71
2021/07/18 06:36:35;;;;;;;15.28;11.28;;;;;;;31.45;51.38;99106.68;1716513;83;21430;-71
2021/07/18 06:39:02;;;;;;;18.20;11.90;;;;;;;31.15;52.16;99111.56;1707645;83;21000;-71
2021/07/18 06:41:29;;;;;;;20.52;12.07;;;;;;;31.09;53.15;99109.86;1695593;83;21442;-71
2021/07/18 06:43:55;;;;;;;17.90;12.18;;;;;;;31.31;52.75;99112.53;1703916;83;21078;-69
2021/07/18 06:46:22;;;;;;;21.60;11.88;;;;;;;31.69;53.17;99113.12;1716668;83;20959;-71
2021/07/18 06:48:48;;;;;;;16.23;12.15;;;;;;;32.05;52.35;99116.09;1723824;83;21117;-71
2021/07/18 06:51:14;;;;;;;18.50;12.47;;;;;;;32.26;51.67;99114.92;1717577;83;21013;-69
2021/07/18 06:53:41;;;;;;;21.37;12.80;;;;;;;32.21;50.96;99111.98;1689624;85;21122;-69
2021/07/18 06:56:07;;;;;;;18.45;11.30;;;;;;;32.21;51.09;99115.41;1702574;83;20942;-69
2021/07/18 06:58:34;;;;;;;17.62;12.65;;;;;;;32.25;49.05;99111.91;1677239;85;21129;-69
2021/07/18 07:01:00;;;;;;;21.82;12.10;;;;;;;32.23;48.78;99110.16;1724194;83;21015;-69
2021/07/18 07:03:26;;;;;;;15.63;11.53;;;;;;;32.27;49.67;99114.50;1723845;83;21635;-70
2021/07/18 07:05:53;;;;;;;18.32;12.20;;;;;;;32.44;49.17;99109.73;1723936;83;21026;-70
2021/07/18 07:08:19;;;;;;;17.27;12.13;;;;;;;32.59;48.89;99104.63;1716661;83;21696;-70
2021/07/18 07:10:48;;;;;;;18.42;12.20;;;;;;;32.88;48.17;99099.33;1718104;83;20983;-70
2021/07/18 07:13:15;;;;;;;14.35;11.85;;;;;;;33.11;47.66;99107.51;1720974;82;21058;-70
2021/07/18 07:15:42;;;;;;;18.37;12.45;;;;;;;33.03;47.12;99106.23;1717919;83;20970;-70
2021/07/18 07:18:10;;;;;;;16.70;11.45;;;;;;;32.94;47.55;99107.46;1725438;83;21540;-70
2021/07/18 07:20:37;;;;;;;15.58;11.63;;;;;;;32.94;47.90;99104.64;1720981;83;21008;-69
2021/07/18 07:23:03;;;;;;;14.05;10.18;;;;;;;33.10;47.96;99108.70;1695228;82;21616;-70
2021/07/18 07:25:30;;;;;;;15.23;10.88;;;;;;;33.19;47.43;99103.30;1719397;83;20995;-68
2021/07/18 07:27:56;;;;;;;14.90;11.08;;;;;;;33.13;46.00;99103.63;1718376;82;21498;-69
2021/07/18 07:30:23;;;;;;;15.08;11.43;;;;;;;32.78;46.73;99106.00;1723820;83;20978;-69
2021/07/18 07:32:49;;;;;;;10.50;9.18;;;;;;;32.68;47.41;99109.84;1712918;83;21009;-71
2021/07/18 07:35:16;;;;;;;15.48;11.18;;;;;;;32.87;48.01;99113.87;1718490;83;21454;-72
2021/07/18 07:37:43;;;;;;;16.32;10.85;;;;;;;32.89;46.61;99111.39;1706683;83;21019;-72
2021/07/18 07:40:13;;;;;;;17.32;9.90;;;;;;;32.89;47.39;99103.73;1683640;83;20976;-71
2021/07/18 07:42:40;;;;;;;18.62;10.60;;;;;;;33.00;46.70;99112.75;1700531;83;21012;-70
2021/07/18 07:45:09;;;;;;;13.25;10.20;;;;;;;33.04;46.72;99116.29;1724015;83;20988;-69
2021/07/18 07:47:38;;;;;;;14.07;9.80;;;;;;;33.02;47.53;99114.50;1717432;83;21570;-69
2021/07/18 07:50:07;;;;;;;16.65;11.12;;;;;;;33.15;45.90;99113.86;1716289;83;20959;-69
2021/07/18 07:52:33;;;;;;;17.48;10.32;;;;;;;33.36;45.54;99102.07;1716386;83;21622;-69
2021/07/18 07:55:00;;;;;;;12.53;8.78;;;;;;;33.55;45.77;99110.28;1716269;82;21059;-69
2021/07/18 07:57:26;;;;;;;14.18;9.90;;;;;;;33.71;45.71;99118.14;1715469;83;21567;-69
2021/07/18 07:59:53;;;;;;;14.30;9.98;;;;;;;33.65;45.04;99112.86;1714335;82;21035;-70
2021/07/18 08:02:19;;;;;;;15.20;10.05;;;;;;;33.64;44.62;99114.09;1716355;83;21042;-70
2021/07/18 08:04:45;;;;;;;14.47;9.48;;;;;;;33.65;45.32;99116.30;1715272;82;21108;-70
2021/07/18 08:07:12;;;;;;;16.50;10.50;;;;;;;33.67;44.21;99110.38;1709914;83;21027;-69
2021/07/18 08:09:40;;;;;;;12.63;9.08;;;;;;;33.91;44.76;99101.87;1717225;82;21023;-69
2021/07/18 08:12:07;;;;;;;12.58;8.45;;;;;;;34.05;44.91;99102.74;1715492;83;21591;-70
2021/07/18 08:14:36;;;;;;;11.63;8.50;;;;;;;33.97;43.66;99103.55;1686768;83;21003;-70
2021/07/18 08:17:03;;;;;;;12.18;8.68;;;;;;;34.08;43.65;99109.70;1712528;83;20996;-69
2021/07/18 08:19:30;;;;;;;12.10;8.43;;;;;;;34.16;43.35;99101.22;1714582;82;21087;-69
2021/07/18 08:21:56;;;;;;;11.70;8.85;;;;;;;34.27;43.32;99102.33;1715607;83;20963;-70
2021/07/18 08:24:22;;;;;;;17.45;9.40;;;;;;;34.31;43.73;99108.68;1715944;83;21015;-69
2021/07/18 08:26:49;;;;;;;15.48;8.95;;;;;;;34.47;41.81;99100.16;1716375;83;21474;-69
2021/07/18 08:29:15;;;;;;;17.20;8.95;;;;;;;34.66;42.63;99092.75;1695762;83;21051;-70
2021/07/18 08:31:41;;;;;;;12.45;8.70;;;;;;;35.01;41.48;99100.75;1716307;83;21498;-70
2021/07/18 08:34:08;;;;;;;14.63;9.60;;;;;;;35.20;40.96;99100.58;1716106;82;21091;-70
2021/07/18 08:36:34;;;;;;;11.97;8.55;;;;;;;35.26;41.56;99103.62;1698644;83;20996;-70
2021/07/18 08:39:01;;;;;;;13.08;8.33;;;;;;;35.13;39.76;99095.77;1688187;83;21107;-70
2021/07/18 08:41:27;;;;;;;11.18;7.83;;;;;;;34.81;39.45;99096.12;1711877;83;21471;-70
2021/07/18 08:43:53;;;;;;;11.97;8.00;;;;;;;34.82;40.75;99090.64;1713465;83;21039;-70
2021/07/18 08:46:20;;;;;;;9.38;7.30;;;;;;;35.02;41.04;99095.27;1714428;83;21538;-70
2021/07/18 08:48:47;;;;;;;10.43;7.65;;;;;;;35.18;39.53;99088.91;1712792;82;21051;-70
2021/07/18 08:51:14;;;;;;;10.90;7.70;;;;;;;34.95;39.69;99089.23;1716632;83;20995;-70
2021/07/18 08:53:41;;;;;;;13.45;7.50;;;;;;;34.81;39.27;99093.91;1716168;82;21510;-70
2021/07/18 08:56:07;;;;;;;10.00;7.72;;;;;;;34.81;39.09;99090.47;1716171;83;20992;-70
2021/07/18 08:58:35;;;;;;;12.70;8.10;;;;;;;34.51;39.84;99102.88;1716158;82;21094;-70
2021/07/18 09:02:24;;;;;;;10.60;7.90;;;;;;;34.10;41.26;99090.89;1818934;79;22979;-70
2021/07/18 09:04:50;;;;;;;12.95;7.45;;;;;;;33.98;41.75;99088.17;1785022;79;21089;-69
2021/07/18 09:07:22;;;;;;;9.98;7.15;;;;;;;33.98;40.71;99083.94;1777561;80;21056;-69
2021/07/18 09:09:48;;;;;;;9.88;7.00;;;;;;;33.74;40.06;99079.14;1750464;82;21097;-69
2021/07/18 09:12:14;;;;;;;13.00;7.78;;;;;;;33.61;40.12;99074.64;1751281;82;21025;-69
2021/07/18 09:14:46;;;;;;;10.63;7.53;;;;;;;33.64;39.77;99075.98;1758885;80;21018;-69
2021/07/18 09:17:16;;;;;;;8.23;7.15;;;;;;;33.77;40.57;99066.96;1759160;80;21005;-69
2021/07/18 09:19:43;;;;;;;7.62;6.83;;;;;;;33.91;39.68;99070.81;1786028;79;21022;-69
2021/07/18 09:22:19;;;;;;;11.78;7.42;;;;;;;33.95;39.55;99061.63;1759817;80;20994;-69
2021/07/18 09:24:51;;;;;;;;;;;;;;;33.93;38.91;99062.70;1733260;83;21089;-69
2021/07/18 09:27:31;;;;;;;11.05;6.97;;;;;;;34.04;39.14;99072.30;1781734;80;20096;-69
2021/07/18 09:30:12;;;;;;;9.93;7.50;;;;;;;34.19;39.43;99070.67;1784867;79;21058;-69
2021/07/18 09:32:41;;;;;;;9.85;6.70;;;;;;;34.43;38.25;99064.94;1749473;80;21419;-69
2021/07/18 09:35:10;;;;;;;12.93;7.47;;;;;;;34.43;37.58;99067.77;1725280;83;21070;-69
2021/07/18 09:37:40;;;;;;;9.48;7.08;;;;;;;34.45;38.36;99068.72;1769585;80;21462;-70
2021/07/18 09:40:12;;;;;;;11.50;7.50;;;;;;;34.67;37.39;99068.28;1787634;80;20999;-69
2021/07/18 09:42:47;;;;;;;8.88;7.28;;;;;;;34.76;37.47;99065.56;1784820;79;21006;-69
2021/07/18 09:45:23;;;;;;;8.83;6.75;;;;;;;34.67;36.44;99068.28;1787348;80;20983;-69
2021/07/18 09:48:04;;;;;;;10.25;6.72;;;;;;;34.32;37.00;99072.13;1772732;80;21002;-69
2021/07/18 09:50:40;;;;;;;10.60;6.70;;;;;;;33.92;37.87;99071.61;1745648;80;21062;-69
2021/07/18 09:53:13;;;;;;;10.38;7.05;;;;;;;33.62;39.02;99068.59;1725375;83;21711;-69
2021/07/18 09:56:06;;;;;;;11.95;7.72;;;;;;;33.59;39.00;99066.60;1726835;80;21528;-69
2021/07/18 09:58:33;;;;;;;12.88;7.58;;;;;;;33.78;39.75;99068.56;1743857;81;21055;-69
2021/07/18 10:01:01;;;;;;;11.22;7.40;;;;;;;34.10;39.80;99072.53;1757009;80;21588;-69
2021/07/18 10:03:28;;;;;;;12.68;7.40;;;;;;;34.39;39.08;99077.58;1748147;82;21066;-69
2021/07/18 10:06:15;;;;;;;11.53;7.62;;;;;;;34.43;37.33;99076.86;1748287;82;21644;-69
2021/07/18 10:08:50;;;;;;;9.48;7.08;;;;;;;34.52;37.95;99074.77;1747971;82;21043;-69
2021/07/18 10:11:20;;;;;;;10.93;7.62;;;;;;;34.28;38.72;99074.27;1773058;81;21042;-70
2021/07/18 10:13:48;;;;;;;11.15;7.42;;;;;;;33.77;39.95;99065.55;1773302;80;21051;-70
2021/07/18 10:16:15;;;;;;;12.75;7.50;;;;;;;33.46;41.74;99065.13;1751355;80;21058;-70
2021/07/18 10:18:44;;;;;;;11.53;7.72;;;;;;;33.46;40.93;99065.13;1754733;80;21039;-70
2021/07/18 10:21:13;;;;;;;10.40;7.65;;;;;;;33.56;41.16;99066.70;1712039;84;21043;-70
2021/07/18 10:23:42;;;;;;;10.20;7.40;;;;;;;33.62;40.62;99067.19;1711950;84;21036;-70
2021/07/18 10:26:17;;;;;;;12.82;7.47;;;;;;;33.72;39.94;99061.08;1736889;81;21017;-70
2021/07/18 10:28:45;;;;;;;11.93;7.80;;;;;;;33.82;39.58;99059.38;1758611;81;20979;-70
2021/07/18 10:31:49;;;;;;;13.05;7.33;;;;;;;34.06;39.82;99069.01;1738989;80;21455;-71
2021/07/18 10:34:16;;;;;;;11.80;7.37;;;;;;;33.77;39.16;99042.97;1737801;82;21512;-72
2021/07/18 10:36:42;;;;;;;13.43;7.37;;;;;;;33.25;40.48;99047.95;1742699;81;21700;-72
2021/07/18 10:39:35;;;;;;;12.18;6.92;;;;;;;32.87;40.66;99047.63;1773095;80;21066;-72
2021/07/18 10:42:08;;;;;;;13.05;7.33;;;;;;;32.40;41.74;99049.85;1773329;81;21035;-71
2021/07/18 10:44:44;;;;;;;10.72;6.42;;;;;;;32.02;42.77;99044.58;1752595;81;21008;-71
2021/07/18 10:47:11;;;;;;;10.63;7.12;;;;;;;31.93;43.15;99044.34;1770582;81;21608;-72
2021/07/18 10:49:57;;;;;;;15.98;8.05;;;;;;;31.97;43.95;99047.87;1773263;80;21043;-71
2021/07/18 10:52:30;;;;;;;13.55;8.25;;;;;;;31.97;44.19;99051.30;1773406;80;21054;-71
2021/07/18 10:54:57;;;;;;;15.93;9.10;;;;;;;31.94;44.54;99050.77;1769340;80;21664;-71
2021/07/18 10:57:33;;;;;;;12.70;8.00;;;;;;;31.92;45.52;99054.00;1725858;82;21027;-71
2021/07/18 11:00:23;;;;;;;;;;;;;;;32.01;46.20;99060.47;1741186;81;21057;-71
2021/07/18 11:03:05;;;;;;;12.60;8.33;;;;;;;32.08;45.58;99035.64;1743422;80;20394;-71
2021/07/18 11:05:47;;;;;;;15.75;9.45;;;;;;;32.01;45.74;99034.53;1765452;81;20984;-71
2021/07/18 11:08:15;;;;;;;12.55;8.38;;;;;;;32.14;46.09;99036.71;1766082;80;21430;-71
2021/07/18 11:10:53;;;;;;;13.13;8.43;;;;;;;32.35;46.15;99032.84;1746414;80;20979;-71
2021/07/18 11:13:21;;;;;;;16.62;8.70;;;;;;;32.43;45.16;99029.27;1737739;82;21093;-71
2021/07/18 11:15:49;;;;;;;15.40;8.60;;;;;;;32.39;45.20;99024.31;1765988;81;20982;-71
2021/07/18 11:18:18;;;;;;;10.63;7.78;;;;;;;32.53;44.99;99025.41;1753089;81;21066;-71
2021/07/18 11:20:51;;;;;;;15.93;8.68;;;;;;;32.65;43.91;99017.73;1733133;81;21028;-71
2021/07/18 11:23:38;;;;;;;13.45;8.60;;;;;;;32.74;42.87;99019.33;1730658;80;21058;-71
2021/07/18 11:26:15;;;;;;;15.20;8.73;;;;;;;32.81;43.37;99021.98;1773434;81;20996;-71
2021/07/18 11:28:49;;;;;;;13.85;8.80;;;;;;;32.81;43.11;99025.41;1766230;80;21550;-73